Time;durP1;ratioP1;P1;durP2;ratioP2;P2;SDS_P1;SDS_P2;PMS_P1;PMS_P2;Temp;Humidity;BMP_temperature;BMP_pressure;BME280_temperature;BME280_humidity;BME280_pressure;Samples;Min_cycle;Max_cycle;Signal;HPM_P1;HPM_P2
2024/04/09 00:01:43;;;;;;;2.30;1.48;;;16.80;96.70;;;;;;5413481;26;20117;-76
2024/04/09 00:04:12;;;;;;;4.32;1.50;;;16.80;96.70;;;;;;5432973;26;19999;-77
2024/04/09 00:06:41;;;;;;;4.72;1.70;;;16.70;96.70;;;;;;5415492;26;20622;-78
2024/04/09 00:09:20;;;;;;;6.07;2.15;;;16.70;96.70;;;;;;5382775;26;20026;-77
2024/04/09 00:11:53;;;;;;;3.17;1.50;;;16.70;96.70;;;;;;5400010;26;20029;-77
2024/04/09 00:14:24;;;;;;;4.25;1.55;;;16.70;96.70;;;;;;5444553;26;20046;-77
2024/04/09 00:16:53;;;;;;;2.15;1.50;;;16.70;96.70;;;;;;5415574;26;20009;-77
2024/04/09 00:19:23;;;;;;;2.75;1.60;;;16.40;96.70;;;;;;5438482;26;20058;-77
2024/04/09 00:21:53;;;;;;;5.15;1.52;;;16.50;96.70;;;;;;5422429;26;20014;-77
2024/04/09 00:24:25;;;;;;;4.38;1.70;;;16.50;96.70;;;;;;5441392;26;20017;-77
2024/04/09 00:26:54;;;;;;;3.70;1.50;;;16.50;96.70;;;;;;5439222;26;20005;-79
2024/04/09 00:29:23;;;;;;;3.15;1.75;;;16.50;96.70;;;;;;5444334;26;20002;-77
2024/04/09 00:31:52;;;;;;;4.70;1.65;;;16.40;96.70;;;;;;5415053;26;20336;-76
2024/04/09 00:34:22;;;;;;;2.95;1.27;;;16.40;96.70;;;;;;5444585;26;20002;-77
2024/04/09 00:36:51;;;;;;;6.28;1.60;;;16.30;96.70;;;;;;5444462;26;20077;-77
2024/04/09 00:39:22;;;;;;;4.68;1.80;;;16.30;96.70;;;;;;5422801;26;20115;-76
2024/04/09 00:41:54;;;;;;;5.88;1.55;;;16.30;96.70;;;;;;5422733;26;19999;-77
2024/04/09 00:44:25;;;;;;;3.15;1.50;;;16.30;96.70;;;;;;5443146;26;20354;-77
2024/04/09 00:46:54;;;;;;;3.80;1.58;;;16.40;96.70;;;;;;5444787;26;20365;-77
2024/04/09 00:49:23;;;;;;;3.17;1.50;;;16.30;96.70;;;;;;5444949;26;20022;-76
2024/04/09 00:51:53;;;;;;;2.92;1.40;;;16.40;96.70;;;;;;5415111;26;20006;-77
2024/04/09 00:54:22;;;;;;;2.55;1.60;;;16.40;96.70;;;;;;5425603;26;20017;-76
2024/04/09 00:56:58;;;;;;;3.03;1.40;;;16.40;96.70;;;;;;5420191;26;20013;-77
2024/04/09 00:59:27;;;;;;;3.30;1.50;;;16.40;96.70;;;;;;5407950;26;20011;-77
2024/04/09 01:01:55;;;;;;;3.25;1.58;;;16.40;96.70;;;;;;5392457;26;19998;-77
2024/04/09 01:04:24;;;;;;;2.85;1.38;;;16.40;96.70;;;;;;5382813;26;19999;-77
2024/04/09 01:06:53;;;;;;;6.20;1.90;;;16.30;96.70;;;;;;5408032;26;20031;-77
2024/04/09 01:09:22;;;;;;;4.10;1.40;;;16.20;96.70;;;;;;5413449;26;19999;-76
2024/04/09 01:11:53;;;;;;;4.57;1.90;;;16.10;96.70;;;;;;5437812;26;20334;-76
2024/04/09 01:14:22;;;;;;;1.98;1.10;;;16.10;96.70;;;;;;5398130;26;20007;-76
2024/04/09 01:16:52;;;;;;;6.18;1.70;;;16.00;96.70;;;;;;5443774;26;20335;-77
2024/04/09 01:19:21;;;;;;;3.83;1.55;;;15.90;96.70;;;;;;5401149;26;20470;-76
2024/04/09 01:21:52;;;;;;;2.88;1.42;;;15.90;96.70;;;;;;5444158;26;20007;-77
2024/04/09 01:24:24;;;;;;;4.65;2.10;;;15.90;96.70;;;;;;5439890;26;20007;-76
2024/04/09 01:26:53;;;;;;;4.65;2.00;;;16.00;96.70;;;;;;5443348;26;20003;-77
2024/04/09 01:29:21;;;;;;;4.70;1.95;;;16.00;96.70;;;;;;5413514;26;20007;-76
2024/04/09 01:31:52;;;;;;;3.63;1.73;;;16.00;96.70;;;;;;5381733;26;20003;-77
2024/04/09 01:34:21;;;;;;;3.75;1.60;;;16.00;96.70;;;;;;5378218;26;19999;-77
2024/04/09 01:36:52;;;;;;;3.28;1.67;;;16.00;96.70;;;;;;5433492;26;20308;-77
2024/04/09 01:39:23;;;;;;;4.68;2.00;;;16.00;96.70;;;;;;5440930;26;20003;-76
2024/04/09 01:41:52;;;;;;;3.05;1.70;;;15.90;96.70;;;;;;5473280;26;20079;-78
2024/04/09 01:44:21;;;;;;;4.60;1.80;;;15.90;96.70;;;;;;5473950;26;20007;-76
2024/04/09 01:46:50;;;;;;;3.50;1.58;;;15.80;96.70;;;;;;5461601;26;20011;-76
2024/04/09 01:49:25;;;;;;;7.20;2.22;;;15.90;96.70;;;;;;5416497;26;20014;-77
2024/04/09 01:51:55;;;;;;;4.95;1.95;;;15.80;96.70;;;;;;5443607;26;19996;-77
2024/04/09 01:54:27;;;;;;;3.85;1.80;;;15.80;96.70;;;;;;5443495;26;20015;-76
2024/04/09 01:56:56;;;;;;;7.13;2.17;;;15.70;96.70;;;;;;5446471;26;20071;-76
2024/04/09 01:59:25;;;;;;;6.90;2.20;;;15.70;96.70;;;;;;5429199;26;20770;-77
2024/04/09 02:01:54;;;;;;;3.53;2.00;;;15.70;96.70;;;;;;5398984;26;20115;-76
2024/04/09 02:04:26;;;;;;;4.40;1.50;;;15.70;96.70;;;;;;5446260;26;20076;-76
2024/04/09 02:06:55;;;;;;;5.40;1.60;;;15.50;96.70;;;;;;5417638;26;20018;-77
2024/04/09 02:09:27;;;;;;;3.47;1.50;;;15.50;96.70;;;;;;5432519;26;20015;-77
2024/04/09 02:11:57;;;;;;;6.43;1.70;;;15.60;96.70;;;;;;5424860;26;20015;-77
2024/04/09 02:14:27;;;;;;;2.65;1.65;;;15.60;96.70;;;;;;5430401;26;20007;-77
2024/04/09 02:16:56;;;;;;;5.50;1.80;;;15.70;96.70;;;;;;5437277;26;20006;-77
2024/04/09 02:19:25;;;;;;;5.38;2.10;;;15.70;96.70;;;;;;5446772;26;20107;-77
2024/04/09 02:21:54;;;;;;;3.00;1.65;;;15.80;96.70;;;;;;5426742;26;19996;-77
2024/04/09 02:24:23;;;;;;;7.22;2.20;;;15.60;96.70;;;;;;5422859;26;20007;-77
2024/04/09 02:26:56;;;;;;;7.03;2.63;;;15.60;96.70;;;;;;5422223;26;20006;-76
2024/04/09 02:29:25;;;;;;;3.33;1.95;;;15.50;96.70;;;;;;5476194;26;20566;-76
2024/04/09 02:31:54;;;;;;;6.45;2.50;;;15.60;96.70;;;;;;5416431;26;19999;-76
2024/04/09 02:34:24;;;;;;;3.72;2.20;;;15.60;96.70;;;;;;5446661;26;20022;-77
2024/04/09 02:36:53;;;;;;;3.25;2.13;;;15.60;96.70;;;;;;5417641;26;20028;-77
2024/04/09 02:39:23;;;;;;;3.67;1.90;;;15.50;96.70;;;;;;5414013;26;20804;-77
2024/04/09 02:41:55;;;;;;;4.13;2.10;;;15.50;96.70;;;;;;5445546;26;20079;-76
2024/04/09 02:44:25;;;;;;;3.22;1.85;;;15.50;96.70;;;;;;5445829;26;19999;-77
2024/04/09 02:46:54;;;;;;;5.22;1.75;;;15.40;96.70;;;;;;5446263;26;19999;-76
2024/04/09 02:49:23;;;;;;;3.85;1.90;;;15.50;96.70;;;;;;5408984;26;20027;-76
2024/04/09 02:51:54;;;;;;;4.70;2.28;;;15.50;96.70;;;;;;5410494;26;19999;-76
2024/04/09 02:54:23;;;;;;;5.68;2.10;;;15.50;96.70;;;;;;5398398;26;20027;-77
2024/04/09 02:56:55;;;;;;;3.35;1.90;;;15.50;96.70;;;;;;5443214;26;20080;-76
2024/04/09 02:59:24;;;;;;;4.97;1.83;;;15.40;96.70;;;;;;5415788;26;19999;-76
2024/04/09 03:01:53;;;;;;;3.42;1.73;;;15.30;96.70;;;;;;5442128;26;20010;-77
2024/04/09 03:04:21;;;;;;;3.15;1.63;;;15.20;96.70;;;;;;5443910;26;20463;-76
2024/04/09 03:06:52;;;;;;;3.83;1.85;;;15.30;96.70;;;;;;5416424;26;20048;-76
2024/04/09 03:09:21;;;;;;;6.13;1.75;;;15.30;96.70;;;;;;5414775;26;20416;-76
2024/04/09 03:11:50;;;;;;;5.75;1.98;;;15.20;96.70;;;;;;5414924;26;20051;-76
2024/04/09 03:14:23;;;;;;;4.85;1.98;;;15.20;96.70;;;;;;5439929;26;20479;-76
2024/04/09 03:16:52;;;;;;;4.50;1.70;;;15.10;96.70;;;;;;5445156;26;20003;-76
2024/04/09 03:19:21;;;;;;;5.18;1.58;;;15.10;96.70;;;;;;5438260;26;20297;-77
2024/04/09 03:21:50;;;;;;;7.22;1.98;;;15.10;96.70;;;;;;5413276;26;20014;-77
2024/04/09 03:24:19;;;;;;;3.47;1.73;;;15.00;96.70;;;;;;5444303;26;20114;-76
2024/04/09 03:26:49;;;;;;;5.35;1.80;;;15.10;96.70;;;;;;5442233;26;20018;-77
2024/04/09 03:29:21;;;;;;;3.15;1.58;;;15.10;96.70;;;;;;5445205;26;20002;-76
2024/04/09 03:31:50;;;;;;;5.68;1.80;;;15.20;96.70;;;;;;5444956;26;20067;-77
2024/04/09 03:34:19;;;;;;;5.15;2.05;;;15.20;96.70;;;;;;5421133;26;20007;-76
2024/04/09 03:36:50;;;;;;;3.75;1.88;;;15.20;96.70;;;;;;5420746;26;20344;-76
2024/04/09 03:39:20;;;;;;;3.80;1.73;;;15.10;96.70;;;;;;5409670;26;20012;-76
2024/04/09 03:41:49;;;;;;;3.80;1.65;;;15.10;96.70;;;;;;5439855;26;20343;-76
2024/04/09 03:44:22;;;;;;;4.35;1.90;;;15.10;96.70;;;;;;5444997;26;20076;-76
2024/04/09 03:46:53;;;;;;;4.40;1.75;;;15.20;96.70;;;;;;5415259;26;20454;-76
2024/04/09 03:49:21;;;;;;;3.67;2.40;;;15.20;96.70;;;;;;5415924;26;20046;-76
2024/04/09 03:51:52;;;;;;;4.47;1.52;;;15.10;96.70;;;;;;5403234;26;20010;-77
2024/04/09 03:54:21;;;;;;;4.93;2.30;;;15.00;96.70;;;;;;5415675;26;19999;-76
2024/04/09 03:56:50;;;;;;;6.57;1.90;;;15.00;96.70;;;;;;5406922;26;20791;-76
2024/04/09 03:59:22;;;;;;;3.75;1.88;;;15.00;96.70;;;;;;5444654;26;20003;-77
2024/04/09 04:01:51;;;;;;;4.32;1.92;;;15.00;96.70;;;;;;5415796;26;20042;-76
2024/04/09 04:04:20;;;;;;;5.10;1.60;;;14.90;96.70;;;;;;5408455;26;19999;-77
2024/04/09 04:06:49;;;;;;;4.43;2.20;;;14.90;96.70;;;;;;5408764;26;20022;-77
2024/04/09 04:09:20;;;;;;;3.78;1.83;;;14.90;96.70;;;;;;5415196;26;19999;-77
2024/04/09 04:11:48;;;;;;;3.15;1.52;;;15.00;96.70;;;;;;5413385;26;20013;-76
2024/04/09 04:14:21;;;;;;;3.20;1.88;;;15.00;96.70;;;;;;5445451;26;20379;-76
2024/04/09 04:16:50;;;;;;;4.13;1.83;;;14.90;96.70;;;;;;5443513;26;20155;-75
2024/04/09 04:19:18;;;;;;;3.33;1.52;;;14.90;96.70;;;;;;5415202;26;19999;-76
2024/04/09 04:21:47;;;;;;;3.80;1.85;;;14.80;96.70;;;;;;5443850;26;20056;-76
2024/04/09 04:24:15;;;;;;;2.67;1.60;;;14.70;96.70;;;;;;5437612;26;20349;-76
2024/04/09 04:26:45;;;;;;;4.10;1.88;;;14.80;96.70;;;;;;5431755;26;20029;-76
2024/04/09 04:29:15;;;;;;;6.00;2.35;;;14.70;96.70;;;;;;5442274;26;20010;-75
2024/04/09 04:31:48;;;;;;;3.53;1.92;;;14.70;96.70;;;;;;5441946;26;20076;-76
2024/04/09 04:34:16;;;;;;;4.82;2.20;;;14.70;96.70;;;;;;5441945;26;20006;-76
2024/04/09 04:36:45;;;;;;;6.93;2.10;;;14.70;96.70;;;;;;5442142;26;19999;-76
2024/04/09 04:39:14;;;;;;;6.68;2.33;;;14.60;96.70;;;;;;5437323;26;20007;-76
2024/04/09 04:41:44;;;;;;;5.50;2.10;;;14.60;96.70;;;;;;5396936;26;20012;-76
2024/04/09 04:44:14;;;;;;;3.92;1.73;;;14.60;96.70;;;;;;5440653;26;19999;-75
2024/04/09 04:46:43;;;;;;;4.18;1.92;;;14.60;96.70;;;;;;5414566;26;20030;-76
2024/04/09 04:49:15;;;;;;;6.20;1.98;;;14.60;96.70;;;;;;5407962;26;20015;-76
2024/04/09 04:51:44;;;;;;;5.07;2.10;;;14.60;96.70;;;;;;5379954;26;20006;-75
2024/04/09 04:54:13;;;;;;;4.72;2.40;;;14.60;96.70;;;;;;5435906;26;20000;-75
2024/04/09 04:56:42;;;;;;;3.33;2.05;;;14.70;96.70;;;;;;5426765;26;20003;-75
2024/04/09 04:59:11;;;;;;;8.13;2.85;;;14.70;96.70;;;;;;5413508;26;20003;-75
2024/04/09 05:01:40;;;;;;;5.40;2.17;;;14.70;96.70;;;;;;5413178;26;20009;-76
2024/04/09 05:04:10;;;;;;;5.75;2.30;;;14.70;96.70;;;;;;5413904;26;20032;-75
2024/04/09 05:06:43;;;;;;;3.28;2.30;;;14.80;96.70;;;;;;5412154;26;20002;-76
2024/04/09 05:09:12;;;;;;;4.95;2.45;;;14.80;96.70;;;;;;5442446;26;20352;-75
2024/04/09 05:11:42;;;;;;;4.47;2.80;;;14.80;96.70;;;;;;5410838;26;20015;-75
2024/04/09 05:14:12;;;;;;;5.47;2.40;;;14.80;96.70;;;;;;5443348;26;20126;-75
2024/04/09 05:16:41;;;;;;;14.68;2.78;;;14.80;96.70;;;;;;5412613;26;20010;-75
2024/04/09 05:19:11;;;;;;;3.65;2.22;;;14.70;96.70;;;;;;5444152;26;20003;-75
2024/04/09 05:21:45;;;;;;;4.18;2.20;;;14.70;96.70;;;;;;5414104;26;19999;-76
2024/04/09 05:24:14;;;;;;;3.85;2.10;;;14.70;96.70;;;;;;5443706;26;20009;-76
2024/04/09 05:26:42;;;;;;;5.28;2.33;;;14.70;96.70;;;;;;5406679;26;20011;-76
2024/04/09 05:29:12;;;;;;;4.93;2.30;;;14.80;96.70;;;;;;5443407;26;20022;-76
2024/04/09 05:31:43;;;;;;;3.70;2.05;;;14.90;96.70;;;;;;5413281;26;20014;-76
2024/04/09 05:34:14;;;;;;;5.72;2.17;;;15.00;96.70;;;;;;5442995;26;20680;-75
2024/04/09 05:36:49;;;;;;;5.22;1.80;;;15.00;96.70;;;;;;5490930;26;20021;-75
2024/04/09 05:39:21;;;;;;;4.38;2.00;;;15.10;96.70;;;;;;5479039;26;20002;-76
2024/04/09 05:41:51;;;;;;;4.55;2.35;;;15.00;96.70;;;;;;5446246;26;20086;-76
2024/04/09 05:44:22;;;;;;;4.65;2.13;;;15.00;96.70;;;;;;5444082;26;20030;-75
2024/04/09 05:46:51;;;;;;;4.53;2.28;;;15.00;96.70;;;;;;5443315;26;20163;-76
2024/04/09 05:49:22;;;;;;;8.75;2.60;;;15.00;96.70;;;;;;5472821;26;20010;-76
2024/04/09 05:51:54;;;;;;;5.45;2.20;;;15.10;96.70;;;;;;5439905;26;19998;-76
2024/04/09 05:54:25;;;;;;;4.50;2.17;;;15.20;96.70;;;;;;5472766;26;20010;-76
2024/04/09 05:56:55;;;;;;;5.93;2.13;;;15.10;96.70;;;;;;5443886;26;20003;-76
2024/04/09 05:59:25;;;;;;;4.45;2.35;;;15.20;96.70;;;;;;5472758;26;21025;-75
2024/04/09 06:01:57;;;;;;;8.02;3.45;;;15.20;96.70;;;;;;5413206;26;20401;-76
2024/04/09 06:04:28;;;;;;;4.70;2.67;;;15.10;96.70;;;;;;5413826;26;20007;-76
2024/04/09 06:07:03;;;;;;;4.53;2.72;;;15.10;96.70;;;;;;5443084;26;20113;-76
2024/04/09 06:09:32;;;;;;;5.03;2.22;;;15.20;96.70;;;;;;5413583;26;20009;-76
2024/04/09 06:12:03;;;;;;;4.88;2.10;;;15.10;96.70;;;;;;5422703;26;20018;-76
2024/04/09 06:14:35;;;;;;;6.15;3.00;;;15.20;96.70;;;;;;5413509;26;19999;-76
2024/04/09 06:17:04;;;;;;;7.38;2.72;;;15.30;96.70;;;;;;5412314;26;20027;-75
2024/04/09 06:19:33;;;;;;;5.68;2.45;;;15.30;96.70;;;;;;5411300;26;20003;-76
2024/04/09 06:22:05;;;;;;;5.20;2.63;;;15.40;96.70;;;;;;5441230;26;20072;-74
2024/04/09 06:24:36;;;;;;;4.07;2.50;;;15.40;96.70;;;;;;5479489;26;20007;-75
2024/04/09 06:27:07;;;;;;;8.45;3.10;;;15.50;96.70;;;;;;5476157;26;20006;-75
2024/04/09 06:29:36;;;;;;;7.93;3.17;;;15.50;96.70;;;;;;5441785;26;20017;-77
2024/04/09 06:32:05;;;;;;;5.20;2.60;;;15.70;96.70;;;;;;5445124;26;20006;-75
2024/04/09 06:34:34;;;;;;;6.50;2.60;;;15.70;96.70;;;;;;5453838;26;19998;-76
2024/04/09 06:37:06;;;;;;;6.97;2.78;;;15.60;96.70;;;;;;5394345;26;19995;-75
2024/04/09 06:39:36;;;;;;;6.15;2.65;;;15.60;96.70;;;;;;5378595;26;20089;-75
2024/04/09 06:42:06;;;;;;;6.30;3.38;;;15.70;96.70;;;;;;5400428;26;20466;-77
2024/04/09 06:44:35;;;;;;;6.03;3.28;;;15.60;96.70;;;;;;5407481;26;20034;-77
2024/04/09 06:47:06;;;;;;;5.90;2.75;;;15.70;96.70;;;;;;5383665;26;20059;-75
2024/04/09 06:49:36;;;;;;;5.38;3.13;;;15.70;96.70;;;;;;5409354;26;19999;-76
2024/04/09 06:52:09;;;;;;;7.30;3.60;;;15.80;96.70;;;;;;5415034;26;20098;-76
2024/04/09 06:54:39;;;;;;;9.68;3.92;;;15.90;96.70;;;;;;5445112;26;20007;-76
2024/04/09 06:57:08;;;;;;;7.28;3.28;;;15.70;96.70;;;;;;5406925;26;20007;-75
2024/04/09 06:59:38;;;;;;;9.00;3.78;;;15.60;96.70;;;;;;5422727;26;20424;-76
2024/04/09 07:02:10;;;;;;;7.05;4.03;;;15.50;96.70;;;;;;5443651;26;20006;-76
2024/04/09 07:04:40;;;;;;;6.93;4.00;;;15.60;96.70;;;;;;5415622;26;20006;-76
2024/04/09 07:07:13;;;;;;;7.90;4.28;;;15.70;96.70;;;;;;5415957;26;20005;-76
2024/04/09 07:09:43;;;;;;;9.23;4.88;;;15.80;96.70;;;;;;5441053;26;20013;-76
2024/04/09 07:12:14;;;;;;;8.80;4.20;;;16.00;96.70;;;;;;5437487;26;20476;-76
2024/04/09 07:14:44;;;;;;;7.22;4.55;;;16.10;96.70;;;;;;5412421;26;20002;-74
2024/04/09 07:17:13;;;;;;;10.25;4.03;;;16.30;96.70;;;;;;5426608;26;20080;-75
2024/04/09 07:19:44;;;;;;;10.70;4.95;;;16.50;96.70;;;;;;5379790;26;20004;-74
2024/04/09 07:22:15;;;;;;;10.77;5.35;;;16.60;96.70;;;;;;5419924;26;20085;-76
2024/04/09 07:24:47;;;;;;;9.38;4.65;;;16.70;96.70;;;;;;5397895;26;20012;-76
2024/04/09 07:27:16;;;;;;;10.43;5.30;;;16.70;96.70;;;;;;5433517;26;20017;-75
2024/04/09 07:29:48;;;;;;;8.55;5.30;;;16.80;96.70;;;;;;5440390;26;20017;-74
2024/04/09 07:32:19;;;;;;;10.15;5.55;;;16.90;96.70;;;;;;5402825;26;20048;-76
2024/04/09 07:34:50;;;;;;;8.85;5.88;;;17.00;96.70;;;;;;5416706;26;20006;-75
2024/04/09 07:37:23;;;;;;;12.40;6.47;;;17.10;96.70;;;;;;5394237;26;20340;-75
2024/04/09 07:39:53;;;;;;;15.90;9.48;;;17.30;96.70;;;;;;5385415;26;20013;-75
2024/04/09 07:42:22;;;;;;;13.13;8.20;;;17.40;96.70;;;;;;5388311;26;20018;-76
2024/04/09 07:44:51;;;;;;;14.38;7.93;;;17.40;96.70;;;;;;5404403;26;20009;-75
2024/04/09 07:47:21;;;;;;;14.23;6.57;;;17.50;96.70;;;;;;5413339;26;20022;-75
2024/04/09 07:49:52;;;;;;;10.60;6.10;;;17.60;96.70;;;;;;5442909;26;20014;-75
2024/04/09 07:52:26;;;;;;;14.20;6.97;;;17.70;96.70;;;;;;5396285;26;20027;-75
2024/04/09 07:54:55;;;;;;;8.88;5.20;;;17.90;96.70;;;;;;5432983;26;19995;-75
2024/04/09 07:57:27;;;;;;;10.73;5.20;;;18.00;96.70;;;;;;5418885;26;20003;-75
2024/04/09 07:59:57;;;;;;;8.65;5.30;;;18.10;96.70;;;;;;5415519;26;20017;-75
2024/04/09 08:02:31;;;;;;;11.32;6.45;;;18.20;96.70;;;;;;5417803;26;20031;-75
2024/04/09 08:05:02;;;;;;;9.30;6.30;;;18.40;96.70;;;;;;5408396;26;20039;-75
2024/04/09 08:07:38;;;;;;;9.77;6.60;;;18.40;96.70;;;;;;5429813;26;20398;-75
2024/04/09 08:10:11;;;;;;;9.87;6.37;;;18.50;96.70;;;;;;5441071;26;20009;-74
2024/04/09 08:12:48;;;;;;;9.32;6.90;;;18.60;96.70;;;;;;5411197;26;20021;-74
2024/04/09 08:15:21;;;;;;;10.88;6.65;;;18.70;96.70;;;;;;5443798;26;20535;-75
2024/04/09 08:17:50;;;;;;;18.08;10.70;;;18.90;96.70;;;;;;5443834;26;19995;-75
2024/04/09 08:20:21;;;;;;;16.85;10.85;;;19.00;96.70;;;;;;5413883;26;19999;-74
2024/04/09 08:23:00;;;;;;;19.25;11.07;;;19.10;96.70;;;;;;5415272;26;20018;-75
2024/04/09 08:25:31;;;;;;;14.80;9.45;;;19.20;96.70;;;;;;5410664;26;20133;-75
2024/04/09 08:28:02;;;;;;;12.07;8.35;;;19.30;96.70;;;;;;5435043;26;20003;-73
2024/04/09 08:30:31;;;;;;;12.95;7.35;;;19.40;96.70;;;;;;5418545;26;20089;-73
2024/04/09 08:33:04;;;;;;;10.00;7.20;;;19.50;96.70;;;;;;5402167;26;20000;-73
2024/04/09 08:35:36;;;;;;;11.30;7.57;;;19.60;96.70;;;;;;5428749;26;20047;-74
2024/04/09 08:38:08;;;;;;;10.73;6.93;;;19.70;96.70;;;;;;5425028;26;20042;-75
2024/04/09 08:40:38;;;;;;;11.52;6.65;;;19.80;96.70;;;;;;5432960;26;20108;-75
2024/04/09 08:43:08;;;;;;;14.98;7.93;;;19.90;96.70;;;;;;5391196;26;20018;-75
2024/04/09 08:45:42;;;;;;;10.95;6.95;;;20.00;96.70;;;;;;5442316;26;19999;-75
2024/04/09 08:48:12;;;;;;;11.15;6.78;;;20.10;96.70;;;;;;5442419;26;20014;-75
2024/04/09 08:50:49;;;;;;;9.55;5.80;;;20.20;96.70;;;;;;5449784;26;20026;-75
2024/04/09 08:53:28;;;;;;;12.75;6.18;;;20.30;96.70;;;;;;5431684;26;20011;-75
2024/04/09 08:55:59;;;;;;;11.77;6.30;;;20.30;96.70;;;;;;5412926;26;20027;-75
2024/04/09 08:58:28;;;;;;;14.35;6.55;;;20.30;96.70;;;;;;5436408;26;20591;-75
2024/04/09 09:00:58;;;;;;;10.70;6.85;;;20.40;96.70;;;;;;5412654;26;20013;-75
2024/04/09 09:03:27;;;;;;;13.35;6.45;;;20.50;96.70;;;;;;5405652;26;19999;-74
2024/04/09 09:06:00;;;;;;;13.15;6.30;;;20.60;96.70;;;;;;5403631;26;20010;-74
2024/04/09 09:08:41;;;;;;;11.10;6.28;;;20.60;96.70;;;;;;5441306;26;20300;-73
2024/04/09 09:11:10;;;;;;;17.02;6.55;;;20.70;96.70;;;;;;5417413;26;20053;-73
2024/04/09 09:13:39;;;;;;;9.52;5.85;;;20.80;96.70;;;;;;5427837;26;20021;-73
2024/04/09 09:16:09;;;;;;;11.18;5.63;;;20.80;96.70;;;;;;5439296;26;20006;-73
2024/04/09 09:18:41;;;;;;;9.90;5.47;;;20.90;96.70;;;;;;5407787;26;20011;-73
2024/04/09 09:21:13;;;;;;;10.73;5.07;;;20.90;96.70;;;;;;5409455;26;20766;-73
2024/04/09 09:23:45;;;;;;;10.25;4.97;;;20.80;96.70;;;;;;5442491;26;20047;-73
2024/04/09 09:26:24;;;;;;;9.60;4.65;;;20.70;96.70;;;;;;5441413;26;20861;-75
2024/04/09 09:29:02;;;;;;;6.47;3.70;;;20.70;96.70;;;;;;5410055;26;20007;-71
2024/04/09 09:31:32;;;;;;;7.45;4.55;;;20.80;96.70;;;;;;5405990;26;19999;-75
2024/04/09 09:34:07;;;;;;;11.15;5.25;;;21.00;96.70;;;;;;5408177;26;20069;-75
2024/04/09 09:36:38;;;;;;;9.60;4.60;;;20.90;96.70;;;;;;5435836;26;20057;-76
2024/04/09 09:39:14;;;;;;;10.48;4.70;;;20.90;96.70;;;;;;5434091;26;20118;-76
2024/04/09 09:41:44;;;;;;;6.77;4.33;;;21.10;96.70;;;;;;5413320;26;20006;-76
2024/04/09 09:44:15;;;;;;;7.68;4.30;;;21.20;96.70;;;;;;5400899;26;20396;-75
2024/04/09 09:46:49;;;;;;;9.80;4.00;;;21.40;96.70;;;;;;5413717;26;20023;-76
2024/04/09 09:49:19;;;;;;;7.15;3.65;;;21.50;96.70;;;;;;5442104;26;20009;-76
2024/04/09 09:51:51;;;;;;;7.88;3.75;;;21.50;96.70;;;;;;5397745;26;20031;-76
2024/04/09 09:54:23;;;;;;;6.53;3.30;;;21.60;96.70;;;;;;5406194;26;20520;-76
2024/04/09 09:57:00;;;;;;;5.55;3.15;;;21.60;96.70;;;;;;5411690;26;20452;-75
2024/04/09 09:59:38;;;;;;;4.15;3.25;;;21.60;96.70;;;;;;5408982;26;20003;-76
2024/04/09 10:02:08;;;;;;;6.43;3.38;;;21.80;96.70;;;;;;5441661;26;20006;-76
2024/04/09 10:04:38;;;;;;;5.88;3.42;;;21.90;96.70;;;;;;5442296;26;20348;-76
2024/04/09 10:07:07;;;;;;;8.90;3.58;;;21.90;96.70;;;;;;5412462;26;20440;-76
2024/04/09 10:09:49;;;;;;;4.75;3.47;;;21.90;96.70;;;;;;5411645;26;20007;-76
2024/04/09 10:12:24;;;;;;;7.00;4.32;;;22.10;96.70;;;;;;5441937;26;19999;-76
2024/04/09 10:14:59;;;;;;;4.97;2.90;;;22.20;96.70;;;;;;5413903;26;20555;-76
2024/04/09 10:17:44;;;;;;;5.47;2.70;;;22.30;96.70;;;;;;5416217;26;20003;-77
2024/04/09 10:20:21;;;;;;;4.68;3.35;;;22.30;96.70;;;;;;5445390;26;19999;-76
2024/04/09 10:22:54;;;;;;;5.88;3.22;;;22.50;96.70;;;;;;5445251;26;19999;-76
2024/04/09 10:25:31;;;;;;;6.32;3.13;;;22.70;96.70;;;;;;5438408;26;20065;-76
2024/04/09 10:28:04;;;;;;;5.40;2.78;;;22.80;96.70;;;;;;5405298;26;20007;-76
2024/04/09 10:30:42;;;;;;;6.55;2.97;;;22.80;96.70;;;;;;5409990;26;20460;-76
2024/04/09 10:33:11;;;;;;;5.10;2.75;;;22.70;96.70;;;;;;5409603;26;20078;-76
2024/04/09 10:35:46;;;;;;;6.63;2.80;;;22.80;96.70;;;;;;5437337;26;20027;-76
2024/04/09 10:38:15;;;;;;;4.03;2.47;;;22.90;96.70;;;;;;5416183;26;20292;-76
2024/04/09 10:40:47;;;;;;;4.90;2.95;;;23.20;96.70;;;;;;5469984;26;20006;-76
2024/04/09 10:43:16;;;;;;;3.15;2.25;;;23.40;96.70;;;;;;5450609;26;19994;-76
2024/04/09 10:45:45;;;;;;;4.82;2.58;;;23.50;96.70;;;;;;5449225;26;20006;-75
2024/04/09 10:48:32;;;;;;;4.25;2.47;;;23.70;96.70;;;;;;5455841;26;19998;-77
2024/04/09 10:51:01;;;;;;;4.78;2.33;;;23.80;96.70;;;;;;5446158;26;20007;-75
2024/04/09 10:53:35;;;;;;;4.28;2.63;;;23.80;96.70;;;;;;5451149;26;20348;-76
2024/04/09 10:56:07;;;;;;;3.67;2.40;;;23.90;96.70;;;;;;5474600;26;20006;-76
2024/04/09 10:58:38;;;;;;;4.85;2.35;;;23.90;96.70;;;;;;5441821;26;20030;-75
2024/04/09 11:01:14;;;;;;;3.40;2.53;;;24.10;96.70;;;;;;5451446;26;19998;-76
2024/04/09 11:03:44;;;;;;;4.18;2.55;;;24.30;96.70;;;;;;5481495;26;20009;-76
2024/04/09 11:06:14;;;;;;;3.90;2.38;;;24.40;96.70;;;;;;5451928;26;20436;-75
2024/04/09 11:08:45;;;;;;;4.63;2.15;;;24.60;96.70;;;;;;5451953;26;20093;-76
2024/04/09 11:11:19;;;;;;;4.53;2.03;;;24.70;96.70;;;;;;5474125;26;20021;-76
2024/04/09 11:13:48;;;;;;;5.05;2.00;;;24.70;96.70;;;;;;5477369;26;20009;-76
2024/04/09 11:16:18;;;;;;;4.47;2.10;;;24.70;96.70;;;;;;5480850;26;19994;-76
2024/04/09 11:19:07;;;;;;;3.28;1.90;;;24.80;96.70;;;;;;5451199;26;20005;-76
2024/04/09 11:21:36;;;;;;;4.32;2.30;;;24.80;96.70;;;;;;5437922;26;20013;-75
2024/04/09 11:24:06;;;;;;;4.25;2.20;;;24.80;96.70;;;;;;5451476;26;20014;-76
2024/04/09 11:26:40;;;;;;;3.03;1.90;;;24.90;96.70;;;;;;5443115;26;20014;-75
2024/04/09 11:29:19;;;;;;;3.53;1.90;;;25.00;96.70;;;;;;5419849;26;20020;-76
2024/04/09 11:31:49;;;;;;;4.05;1.80;;;25.00;96.70;;;;;;5480371;26;20471;-75
2024/04/09 11:34:26;;;;;;;3.58;2.22;;;24.80;96.70;;;;;;5480966;26;20017;-75
2024/04/09 11:36:55;;;;;;;3.40;2.00;;;25.00;96.70;;;;;;5421764;26;20008;-76
2024/04/09 11:39:25;;;;;;;4.60;2.35;;;25.00;96.70;;;;;;5415420;26;20481;-76
2024/04/09 11:41:57;;;;;;;4.18;2.13;;;24.90;96.70;;;;;;5414224;26;20293;-76
2024/04/09 11:44:27;;;;;;;4.72;2.47;;;25.00;96.70;;;;;;5441574;26;20083;-77
2024/04/09 11:46:55;;;;;;;4.82;2.00;;;25.20;96.70;;;;;;5443834;26;19998;-76
2024/04/09 11:49:24;;;;;;;3.65;1.92;;;25.40;96.70;;;;;;5411844;26;20006;-76
2024/04/09 11:51:53;;;;;;;3.83;2.00;;;25.60;96.70;;;;;;5414228;26;20068;-75
2024/04/09 11:54:22;;;;;;;5.85;1.95;;;25.70;96.70;;;;;;5444125;26;20004;-76
2024/04/09 11:56:52;;;;;;;4.15;2.03;;;25.70;96.70;;;;;;5445493;26;19999;-76
2024/04/09 11:59:23;;;;;;;3.92;2.20;;;25.70;96.70;;;;;;5410626;26;20022;-76
2024/04/09 12:01:52;;;;;;;5.53;2.22;;;25.60;96.70;;;;;;5414344;26;20136;-76
2024/04/09 12:04:20;;;;;;;5.60;2.00;;;25.60;96.70;;;;;;5414542;26;20076;-76
2024/04/09 12:06:49;;;;;;;3.13;1.80;;;25.60;96.70;;;;;;5443836;26;20003;-75
2024/04/09 12:09:20;;;;;;;6.05;2.67;;;25.80;96.70;;;;;;5444037;26;19995;-75
2024/04/09 12:11:49;;;;;;;3.22;1.90;;;25.80;96.70;;;;;;5443580;26;20030;-75
2024/04/09 12:14:19;;;;;;;3.65;1.58;;;25.80;96.70;;;;;;5409755;26;20088;-75
2024/04/09 12:16:54;;;;;;;4.68;2.00;;;25.80;96.70;;;;;;5379035;26;20010;-77
2024/04/09 12:19:26;;;;;;;2.20;1.52;;;25.90;96.70;;;;;;5436770;26;19995;-76
2024/04/09 12:21:57;;;;;;;3.38;1.20;;;25.90;96.70;;;;;;5414075;26;19995;-76
2024/04/09 12:24:27;;;;;;;2.53;1.38;;;26.00;96.70;;;;;;5444206;26;20074;-76
2024/04/09 12:26:58;;;;;;;1.95;0.70;;;26.20;96.70;;;;;;5414267;26;19995;-76
2024/04/09 12:29:28;;;;;;;0.90;0.45;;;26.20;96.70;;;;;;5404949;26;20003;-77
2024/04/09 12:32:00;;;;;;;1.25;0.45;;;26.30;96.70;;;;;;5444162;26;19995;-76
2024/04/09 12:34:32;;;;;;;1.20;0.55;;;26.20;96.70;;;;;;5444004;26;20099;-76
2024/04/09 12:37:01;;;;;;;3.10;0.57;;;26.20;96.70;;;;;;5413798;26;19999;-77
2024/04/09 12:39:31;;;;;;;4.72;0.50;;;26.30;96.70;;;;;;5443451;26;20009;-76
2024/04/09 12:42:00;;;;;;;1.00;0.57;;;26.20;96.70;;;;;;5443818;26;20444;-76
2024/04/09 12:44:29;;;;;;;1.02;0.70;;;25.90;96.70;;;;;;5437253;26;20401;-76
2024/04/09 12:47:02;;;;;;;0.85;0.47;;;25.70;96.70;;;;;;5395145;26;20379;-76
2024/04/09 12:49:31;;;;;;;3.15;0.60;;;25.60;96.70;;;;;;5407715;26;20017;-76
2024/04/09 12:52:13;;;;;;;3.17;1.13;;;25.60;96.70;;;;;;5432788;26;20325;-76
2024/04/09 12:54:42;;;;;;;3.30;1.48;;;25.80;96.70;;;;;;5414346;26;19998;-76
2024/04/09 12:57:11;;;;;;;6.82;1.45;;;25.90;96.70;;;;;;5444258;26;20010;-76
2024/04/09 12:59:42;;;;;;;4.20;1.83;;;25.70;96.70;;;;;;5440367;26;20013;-78
2024/04/09 13:02:37;;;;;;;10.18;1.83;;;25.60;96.70;;;;;;5432618;26;20032;-76
2024/04/09 13:05:11;;;;;;;6.70;1.35;;;25.40;96.70;;;;;;5442081;26;20002;-75